createdAt,value
2023-03-15T00:01:46.802Z,96821.97
2023-03-15T00:04:57.377Z,96839.56
2023-03-15T00:08:11.011Z,96853.03
2023-03-15T00:11:18.708Z,96868.47
2023-03-15T00:14:25.111Z,96890.19
2023-03-15T00:17:34.986Z,96896.09
2023-03-15T00:20:46.531Z,96919.59
2023-03-15T00:23:56.392Z,96936.19
2023-03-15T00:27:05.051Z,96941.97
2023-03-15T00:30:18.912Z,96938.66
2023-03-15T00:33:24.931Z,96963.94
2023-03-15T00:36:36.037Z,96965.94
2023-03-15T00:39:41.905Z,96969.50
2023-03-15T00:42:50.595Z,96975.75
2023-03-15T00:45:56.478Z,96988.94
2023-03-15T00:49:03.153Z,97006.34
2023-03-15T00:52:12.855Z,97013.72
2023-03-15T00:55:23.052Z,97015.19
2023-03-15T00:58:29.036Z,97026.84
2023-03-15T01:01:35.910Z,97042.78
2023-03-15T01:04:43.554Z,97044.81
2023-03-15T01:07:54.677Z,97056.59
2023-03-15T01:11:06.346Z,97065.50
2023-03-15T01:14:13.819Z,97066.38
2023-03-15T01:17:19.771Z,97072.97
2023-03-15T01:20:26.555Z,97076.47
2023-03-15T01:23:35.129Z,97080.09
2023-03-15T01:26:41.942Z,97084.31
2023-03-15T01:29:49.749Z,97088.53
2023-03-15T01:32:56.827Z,97096.72
2023-03-15T01:36:06.169Z,97095.06
2023-03-15T01:39:16.593Z,97104.59
2023-03-15T01:42:26.286Z,97099.66
2023-03-15T01:46:05.141Z,97090.47
2023-03-15T01:49:23.032Z,97090.31
2023-03-15T01:52:37.293Z,97107.72
2023-03-15T01:56:04.888Z,97113.84
2023-03-15T01:59:24.453Z,97105.16
2023-03-15T02:02:32.149Z,97099.16
2023-03-15T02:05:49.784Z,97099.66
2023-03-15T02:09:22.402Z,97096.38
2023-03-15T02:12:37.950Z,97111.97
2023-03-15T02:15:46.969Z,97108.00
2023-03-15T02:19:00.750Z,97114.59
2023-03-15T02:22:29.560Z,97122.25
2023-03-15T02:25:53.928Z,97126.53
2023-03-15T02:29:09.346Z,97123.81
2023-03-15T02:32:16.093Z,97143.50
2023-03-15T02:35:41.303Z,97152.44
2023-03-15T02:38:48.585Z,97152.25
2023-03-15T02:42:08.078Z,97153.31
2023-03-15T02:45:18.531Z,97155.06
2023-03-15T02:48:25.524Z,97172.38
2023-03-15T02:51:36.296Z,97172.16
2023-03-15T02:54:43.747Z,97178.66
2023-03-15T02:57:51.040Z,97171.25
2023-03-15T03:00:59.464Z,97158.19
2023-03-15T03:04:07.155Z,97172.38
2023-03-15T03:07:13.578Z,97168.63
2023-03-15T03:10:42.988Z,97166.44
2023-03-15T03:13:49.253Z,97170.00
2023-03-15T03:17:05.419Z,97174.69
2023-03-15T03:20:16.948Z,97171.75
2023-03-15T03:23:28.378Z,97177.19
2023-03-15T03:26:36.382Z,97195.94
2023-03-15T03:29:43.587Z,97189.63
2023-03-15T03:32:54.426Z,97199.63
2023-03-15T03:36:07.852Z,97207.91
2023-03-15T03:39:14.284Z,97205.97
2023-03-15T03:42:23.340Z,97213.41
2023-03-15T03:45:29.438Z,97235.75
2023-03-15T03:48:44.004Z,97229.19
2023-03-15T03:51:49.954Z,97233.13
2023-03-15T03:54:57.175Z,97243.94
2023-03-15T03:58:03.150Z,97247.63
2023-03-15T04:01:17.970Z,97256.03
2023-03-15T04:04:42.399Z,97263.91
2023-03-15T04:07:57.199Z,97279.41
2023-03-15T04:11:10.050Z,97283.75
2023-03-15T04:14:19.140Z,97279.56
2023-03-15T04:17:28.082Z,97279.28
2023-03-15T04:20:39.381Z,97272.28
2023-03-15T04:23:46.332Z,97282.69
2023-03-15T04:26:58.702Z,97279.88
2023-03-15T04:30:27.326Z,97284.31
2023-03-15T04:34:00.127Z,97279.97
2023-03-15T04:37:15.330Z,97278.50
2023-03-15T04:40:43.232Z,97279.53
2023-03-15T04:44:21.252Z,97291.16
2023-03-15T04:48:01.927Z,97293.66
2023-03-15T04:51:19.931Z,97301.75
2023-03-15T04:54:45.338Z,97301.59
2023-03-15T04:58:16.439Z,97302.38
2023-03-15T05:01:42.111Z,97305.41
2023-03-15T05:05:20.323Z,97313.50
2023-03-15T05:08:40.819Z,97312.56
2023-03-15T05:11:55.860Z,97306.91
2023-03-15T05:15:24.647Z,97316.19
2023-03-15T05:18:30.575Z,97322.81
2023-03-15T05:21:52.516Z,97327.75
2023-03-15T05:25:21.287Z,97326.41
2023-03-15T05:28:49.317Z,97330.97
2023-03-15T05:31:55.339Z,97321.25
2023-03-15T05:35:37.526Z,97333.59
2023-03-15T05:38:53.122Z,97333.03
2023-03-15T05:42:10.904Z,97342.88
2023-03-15T05:45:40.413Z,97342.19
2023-03-15T05:49:04.988Z,97335.91
2023-03-15T05:52:26.750Z,97351.06
2023-03-15T05:55:59.653Z,97357.81
2023-03-15T05:59:21.119Z,97356.84
2023-03-15T06:02:55.009Z,97369.78
2023-03-15T06:06:19.417Z,97381.66
2023-03-15T06:09:33.461Z,97384.22
2023-03-15T06:12:50.433Z,97388.84
2023-03-15T06:15:57.687Z,97393.91
2023-03-15T06:19:08.210Z,97412.19
2023-03-15T06:22:16.438Z,97416.44
2023-03-15T06:25:30.823Z,97423.88
2023-03-15T06:28:38.967Z,97428.97
2023-03-15T06:31:45.011Z,97429.31
2023-03-15T06:34:55.066Z,97424.16
2023-03-15T06:38:01.541Z,97438.44
2023-03-15T06:41:08.818Z,97449.34
2023-03-15T06:44:16.080Z,97457.16
2023-03-15T06:47:23.729Z,97468.47
2023-03-15T06:50:46.092Z,97484.19
2023-03-15T06:53:54.307Z,97489.44
2023-03-15T06:57:01.601Z,97496.72
2023-03-15T07:00:11.514Z,97490.38
2023-03-15T07:03:17.485Z,97495.44
2023-03-15T07:06:28.491Z,97498.19
2023-03-15T07:09:34.406Z,97496.44
2023-03-15T07:12:41.124Z,97496.72
2023-03-15T07:15:47.997Z,97502.09
2023-03-15T07:18:56.408Z,97510.28
2023-03-15T07:22:04.919Z,97509.53
2023-03-15T07:25:13.033Z,97514.72
2023-03-15T07:28:19.075Z,97508.84
2023-03-15T07:31:26.096Z,97514.38
2023-03-15T07:34:32.046Z,97513.91
2023-03-15T07:37:44.757Z,97521.47
2023-03-15T07:40:50.819Z,97526.53
2023-03-15T07:43:58.552Z,97531.31
2023-03-15T07:47:04.599Z,97538.75
2023-03-15T07:50:16.456Z,97554.44
2023-03-15T07:53:32.190Z,97561.84
2023-03-15T07:56:39.334Z,97561.22
2023-03-15T07:59:46.419Z,97549.91
2023-03-15T08:02:56.495Z,97551.84
2023-03-15T08:06:02.368Z,97553.28
2023-03-15T08:09:13.230Z,97558.31
2023-03-15T08:12:30.289Z,97560.94
2023-03-15T08:15:44.404Z,97563.09
2023-03-15T08:18:50.271Z,97568.09
2023-03-15T08:21:57.148Z,97582.34
2023-03-15T08:25:05.603Z,97585.97
2023-03-15T08:28:12.917Z,97589.16
2023-03-15T08:31:18.967Z,97599.75
2023-03-15T08:34:26.326Z,97593.28
2023-03-15T08:37:32.159Z,97596.22
2023-03-15T08:40:41.703Z,97593.72
2023-03-15T08:43:47.711Z,97604.81
2023-03-15T08:46:54.480Z,97605.09
2023-03-15T08:50:00.482Z,97609.03
2023-03-15T08:53:07.154Z,97609.06
2023-03-15T08:56:16.397Z,97623.88
2023-03-15T08:59:31.704Z,97619.03
2023-03-15T09:02:40.280Z,97625.88
2023-03-15T09:05:49.863Z,97632.97
2023-03-15T09:08:56.753Z,97629.91
2023-03-15T09:12:16.498Z,97636.00
2023-03-15T09:15:22.743Z,97631.88
2023-03-15T09:18:29.623Z,97621.84
2023-03-15T09:21:35.779Z,97642.19
2023-03-15T09:24:42.491Z,97645.38
2023-03-15T09:27:52.938Z,97635.75
2023-03-15T09:31:00.203Z,97635.53
2023-03-15T09:34:06.897Z,97633.28
2023-03-15T09:37:13.940Z,97626.78
2023-03-15T09:40:27.647Z,97628.16
2023-03-15T09:44:25.432Z,97631.31
2023-03-15T09:47:49.909Z,97634.31
2023-03-15T09:51:12.183Z,97623.88
2023-03-15T09:54:24.096Z,97632.28
2023-03-15T09:57:49.913Z,97638.25
2023-03-15T10:01:07.595Z,97634.47
2023-03-15T10:04:30.404Z,97641.41
2023-03-15T10:07:36.327Z,97642.41
2023-03-15T10:10:56.504Z,97650.13
2023-03-15T10:14:25.609Z,97642.69
2023-03-15T10:17:53.247Z,97651.94
2023-03-15T10:21:14.110Z,97657.41
2023-03-15T10:24:27.299Z,97664.53
2023-03-15T10:27:44.553Z,97661.03
2023-03-15T10:30:54.466Z,97667.56
2023-03-15T10:34:09.827Z,97673.22
2023-03-15T10:37:16.553Z,97678.44
2023-03-15T10:40:45.369Z,97669.09
2023-03-15T10:44:04.902Z,97668.22
2023-03-15T10:47:23.713Z,97676.88
2023-03-15T10:50:42.352Z,97679.50
2023-03-15T10:53:58.759Z,97679.59
2023-03-15T10:57:16.728Z,97680.81
2023-03-15T11:00:32.617Z,97677.53
2023-03-15T11:03:44.191Z,97670.88
2023-03-15T11:07:03.828Z,97679.66
2023-03-15T11:10:25.490Z,97684.41
2023-03-15T11:13:34.140Z,97683.47
2023-03-15T11:16:41.441Z,97682.94
2023-03-15T11:19:59.883Z,97690.06
2023-03-15T11:23:22.822Z,97680.84
2023-03-15T11:26:33.012Z,97672.66
2023-03-15T11:29:45.343Z,97673.66
2023-03-15T11:32:51.355Z,97671.09
2023-03-15T11:36:03.079Z,97677.63
2023-03-15T11:39:18.698Z,97677.41
2023-03-15T11:42:36.851Z,97678.34
2023-03-15T11:45:54.214Z,97685.03
2023-03-15T11:49:45.504Z,97683.78
2023-03-15T11:52:54.016Z,97688.81
2023-03-15T11:56:26.615Z,97688.06
2023-03-15T11:59:36.891Z,97674.47
2023-03-15T12:02:54.470Z,97683.03
2023-03-15T12:06:34.297Z,97679.63
2023-03-15T12:09:52.646Z,97681.41
2023-03-15T12:13:20.018Z,97688.34
2023-03-15T12:16:31.781Z,97686.38
2023-03-15T12:19:40.560Z,97684.09
2023-03-15T12:22:57.425Z,97694.47
2023-03-15T12:26:26.922Z,97696.19
2023-03-15T12:29:38.860Z,97683.22
2023-03-15T12:32:55.140Z,97700.81
2023-03-15T12:36:18.446Z,97698.72
2023-03-15T12:39:43.072Z,97698.09
2023-03-15T12:43:09.322Z,97703.41
2023-03-15T12:47:04.624Z,97703.03
2023-03-15T12:50:41.710Z,97709.13
2023-03-15T12:53:57.174Z,97716.72
2023-03-15T12:57:07.976Z,97710.69
2023-03-15T13:00:23.990Z,97712.63
2023-03-15T13:03:34.950Z,97707.44
2023-03-15T13:07:07.697Z,97714.53
2023-03-15T13:11:04.205Z,97725.69
2023-03-15T13:14:35.914Z,97722.66
2023-03-15T13:17:53.889Z,97716.66
2023-03-15T13:21:21.356Z,97723.31
2023-03-15T13:24:45.457Z,97728.56
2023-03-15T13:28:01.954Z,97724.25
2023-03-15T13:31:29.939Z,97726.91
2023-03-15T13:34:38.435Z,97740.75
2023-03-15T13:37:47.056Z,97746.66
2023-03-15T13:40:54.102Z,97749.38
2023-03-15T13:44:05.252Z,97757.47
2023-03-15T13:47:23.610Z,97762.53
2023-03-15T13:50:29.675Z,97771.16
2023-03-15T13:53:49.788Z,97768.78
2023-03-15T13:57:06.492Z,97758.44
2023-03-15T14:00:19.460Z,97768.22
2023-03-15T14:03:26.317Z,97765.44
2023-03-15T14:06:33.713Z,97774.81
2023-03-15T14:09:42.310Z,97772.47
2023-03-15T14:12:50.008Z,97768.59
2023-03-15T14:16:04.195Z,97772.47
2023-03-15T14:19:22.187Z,97768.09
2023-03-15T14:22:36.038Z,97773.19
2023-03-15T14:25:46.778Z,97783.97
2023-03-15T14:29:04.972Z,97771.91
2023-03-15T14:32:27.921Z,97776.28
2023-03-15T14:35:43.705Z,97770.44
2023-03-15T14:38:56.460Z,97776.97
2023-03-15T14:42:04.886Z,97773.88
2023-03-15T14:45:13.502Z,97764.53
2023-03-15T14:48:32.164Z,97773.22
2023-03-15T14:51:46.416Z,97772.81
2023-03-15T14:55:06.765Z,97781.00
2023-03-15T14:58:20.237Z,97774.28
2023-03-15T15:01:30.412Z,97767.97
2023-03-15T15:04:39.799Z,97769.03
2023-03-15T15:07:45.868Z,97779.13
2023-03-15T15:10:58.920Z,97772.94
2023-03-15T15:14:07.508Z,97788.56
2023-03-15T15:17:14.304Z,97791.44
2023-03-15T15:20:20.997Z,97796.41
2023-03-15T15:23:32.258Z,97789.50
2023-03-15T15:26:39.303Z,97792.72
2023-03-15T15:29:49.343Z,97789.88
2023-03-15T15:33:07.668Z,97788.81
2023-03-15T15:36:24.405Z,97796.22
2023-03-15T15:39:31.133Z,97792.44
2023-03-15T15:42:37.820Z,97796.59
2023-03-15T15:45:49.257Z,97800.50
2023-03-15T15:48:56.304Z,97795.31
2023-03-15T15:52:04.926Z,97790.31
2023-03-15T15:55:15.738Z,97798.00
2023-03-15T15:58:23.435Z,97804.94
2023-03-15T16:01:33.398Z,97799.56
2023-03-15T16:04:42.243Z,97799.34
2023-03-15T16:07:49.837Z,97783.75
2023-03-15T16:10:59.077Z,97807.69
2023-03-15T16:14:06.302Z,97807.69
2023-03-15T16:17:24.378Z,97807.16
2023-03-15T16:20:31.386Z,97797.47
2023-03-15T16:23:38.875Z,97810.63
2023-03-15T16:26:52.580Z,97814.63
2023-03-15T16:29:59.358Z,97816.66
2023-03-15T16:33:19.110Z,97820.78
2023-03-15T16:36:28.740Z,97820.84
2023-03-15T16:39:41.123Z,97825.00
2023-03-15T16:43:06.063Z,97820.47
2023-03-15T16:46:26.957Z,97821.88
2023-03-15T16:49:59.236Z,97824.78
2023-03-15T16:53:27.003Z,97831.22
2023-03-15T16:56:43.238Z,97834.94
2023-03-15T16:59:49.171Z,97836.03
2023-03-15T17:03:00.178Z,97835.22
2023-03-15T17:06:09.745Z,97851.16
2023-03-15T17:09:22.846Z,97855.75
2023-03-15T17:12:37.232Z,97855.34
2023-03-15T17:15:44.417Z,97849.63
2023-03-15T17:18:56.003Z,97859.00
2023-03-15T17:22:05.689Z,97860.50
2023-03-15T17:25:18.603Z,97869.59
2023-03-15T17:28:31.811Z,97873.47
2023-03-15T17:31:40.324Z,97876.78
2023-03-15T17:34:52.827Z,97883.88
2023-03-15T17:38:08.783Z,97883.06
2023-03-15T17:41:37.406Z,97893.47
2023-03-15T17:44:43.514Z,97896.53
2023-03-15T17:47:50.484Z,97900.53
2023-03-15T17:50:59.369Z,97898.75
2023-03-15T17:54:20.949Z,97909.53
2023-03-15T17:57:27.342Z,97910.91
2023-03-15T18:00:42.290Z,97909.69
2023-03-15T18:03:49.532Z,97915.63
2023-03-15T18:06:56.501Z,97921.44
2023-03-15T18:10:05.207Z,97915.91
2023-03-15T18:13:19.220Z,97912.75
2023-03-15T18:16:25.774Z,97911.50
2023-03-15T18:19:33.069Z,97914.56
2023-03-15T18:22:42.431Z,97911.53
2023-03-15T18:25:52.461Z,97917.22
2023-03-15T18:28:58.680Z,97911.69
2023-03-15T18:32:05.759Z,97911.69
2023-03-15T18:35:26.405Z,97918.78
2023-03-15T18:38:33.482Z,97919.59
2023-03-15T18:41:42.270Z,97924.16
2023-03-15T18:44:49.115Z,97930.41
2023-03-15T18:47:55.555Z,97921.81
2023-03-15T18:51:02.404Z,97911.03
2023-03-15T18:54:08.794Z,97927.25
2023-03-15T18:57:20.706Z,97929.19
2023-03-15T19:00:36.343Z,97920.16
2023-03-15T19:03:44.170Z,97932.75
2023-03-15T19:06:51.759Z,97929.03
2023-03-15T19:09:59.545Z,97926.38
2023-03-15T19:13:09.880Z,97930.97
2023-03-15T19:16:17.841Z,97929.88
2023-03-15T19:19:24.181Z,97939.41
2023-03-15T19:22:32.047Z,97941.22
2023-03-15T19:25:40.413Z,97939.84
2023-03-15T19:28:50.715Z,97947.88
2023-03-15T19:31:57.380Z,97955.38
2023-03-15T19:35:06.025Z,97956.47
2023-03-15T19:38:13.103Z,97963.53
2023-03-15T19:41:20.195Z,97966.28
2023-03-15T19:44:30.840Z,97971.41
2023-03-15T19:47:38.363Z,97979.84
2023-03-15T19:50:45.513Z,97986.50
2023-03-15T19:53:56.775Z,97986.38
2023-03-15T19:57:03.673Z,97998.97
2023-03-15T20:00:16.992Z,98002.28
2023-03-15T20:03:25.920Z,98005.72
2023-03-15T20:06:33.147Z,98000.72
2023-03-15T20:09:40.076Z,98007.03
2023-03-15T20:12:47.663Z,98011.69
2023-03-15T20:16:03.225Z,98012.69
2023-03-15T20:19:11.048Z,98010.84
2023-03-15T20:22:18.116Z,98012.59
2023-03-15T20:25:26.266Z,98011.34
2023-03-15T20:28:32.444Z,98018.25
2023-03-15T20:31:48.556Z,98027.59
2023-03-15T20:34:57.654Z,98021.81
2023-03-15T20:38:06.978Z,98031.31
2023-03-15T20:41:20.741Z,98027.00
2023-03-15T20:44:38.074Z,98033.53
2023-03-15T20:47:46.762Z,98034.88
2023-03-15T20:50:54.213Z,98034.59
2023-03-15T20:54:01.093Z,98031.94
2023-03-15T20:57:08.435Z,98035.13
2023-03-15T21:00:22.776Z,98040.84
2023-03-15T21:03:44.713Z,98038.47
2023-03-15T21:06:50.959Z,98039.63
2023-03-15T21:09:57.729Z,98046.38
2023-03-15T21:13:10.193Z,98047.63
2023-03-15T21:16:18.507Z,98051.91
2023-03-15T21:19:29.402Z,98057.66
2023-03-15T21:22:37.483Z,98060.28
2023-03-15T21:25:57.457Z,98064.09
2023-03-15T21:29:04.224Z,98068.53
2023-03-15T21:32:11.301Z,98071.03
2023-03-15T21:35:28.716Z,98077.41
2023-03-15T21:38:37.613Z,98077.28
2023-03-15T21:41:46.254Z,98079.09
2023-03-15T21:44:55.758Z,98076.56
2023-03-15T21:48:04.660Z,98083.59
2023-03-15T21:51:14.707Z,98081.94
2023-03-15T21:54:22.215Z,98081.72
2023-03-15T21:57:34.073Z,98093.03
2023-03-15T22:00:41.121Z,98085.06
2023-03-15T22:03:47.122Z,98090.44
2023-03-15T22:06:57.819Z,98096.38
2023-03-15T22:10:05.075Z,98102.47
2023-03-15T22:13:11.725Z,98103.53
2023-03-15T22:16:17.996Z,98104.22
2023-03-15T22:19:24.726Z,98113.88
2023-03-15T22:22:33.722Z,98111.59
2023-03-15T22:25:45.174Z,98110.78
2023-03-15T22:28:51.706Z,98108.88
2023-03-15T22:31:58.374Z,98113.41
2023-03-15T22:35:08.467Z,98122.91
2023-03-15T22:38:17.822Z,98123.53
2023-03-15T22:41:24.305Z,98121.59
2023-03-15T22:44:31.066Z,98133.03
2023-03-15T22:47:41.855Z,98140.16
2023-03-15T22:50:48.533Z,98134.09
2023-03-15T22:53:57.438Z,98131.22
2023-03-15T22:57:17.693Z,98140.75
2023-03-15T23:00:43.976Z,98135.59
2023-03-15T23:03:51.300Z,98138.34
2023-03-15T23:06:57.214Z,98144.41
2023-03-15T23:10:09.086Z,98151.19
2023-03-15T23:13:15.130Z,98151.16
2023-03-15T23:16:23.672Z,98158.75
2023-03-15T23:19:38.396Z,98153.28
2023-03-15T23:22:46.389Z,98159.34
2023-03-15T23:25:55.413Z,98164.50
2023-03-15T23:29:01.993Z,98169.00
2023-03-15T23:32:09.708Z,98167.66
2023-03-15T23:35:16.381Z,98171.22
2023-03-15T23:38:22.437Z,98172.63
2023-03-15T23:41:31.714Z,98177.97
2023-03-15T23:44:37.576Z,98174.75
2023-03-15T23:47:46.086Z,98183.44
2023-03-15T23:50:56.475Z,98188.16
2023-03-15T23:54:04.298Z,98187.13
2023-03-15T23:57:16.248Z,98192.59
